Time;durP1;ratioP1;P1;durP2;ratioP2;P2;SDS_P1;SDS_P2;PMS_P1;PMS_P2;Temp;Humidity;BMP_temperature;BMP_pressure;BME280_temperature;BME280_humidity;BME280_pressure;Samples;Min_cycle;Max_cycle;Signal;HPM_P1;HPM_P2
2023/12/19 00:00:46;;;;;;;13.70;8.57;;;;;;;4.83;89.07;102157.16;5025217;28;20089;-68
2023/12/19 00:03:12;;;;;;;15.20;9.63;;;;;;;4.85;89.39;102152.94;5023572;28;20415;-68
2023/12/19 00:05:40;;;;;;;13.00;8.75;;;;;;;4.84;88.99;102152.88;5023906;28;20040;-68
2023/12/19 00:08:06;;;;;;;14.75;8.32;;;;;;;4.87;89.89;102165.81;5025358;28;20045;-68
2023/12/19 00:10:32;;;;;;;13.45;8.93;;;;;;;4.87;89.63;102168.38;5026029;28;20083;-68
2023/12/19 00:12:57;;;;;;;13.00;8.90;;;;;;;4.86;90.18;102170.09;5007382;28;20653;-68
2023/12/19 00:15:23;;;;;;;15.05;9.02;;;;;;;4.87;90.19;102169.25;5022880;28;20037;-68
2023/12/19 00:17:49;;;;;;;12.18;8.57;;;;;;;4.86;89.41;102152.16;5024318;28;20411;-68
2023/12/19 00:20:14;;;;;;;14.38;8.88;;;;;;;4.89;90.75;102174.44;5023622;28;20029;-68
2023/12/19 00:22:39;;;;;;;15.65;9.45;;;;;;;4.89;90.65;102172.75;5057173;28;20048;-68
2023/12/19 00:25:05;;;;;;;14.45;9.20;;;;;;;4.90;90.85;102160.78;5025618;28;20498;-68
2023/12/19 00:27:30;;;;;;;14.98;8.35;;;;;;;4.92;90.11;102146.38;5038120;28;20096;-68
2023/12/19 00:29:56;;;;;;;13.57;8.93;;;;;;;4.91;90.32;102149.75;5020978;28;20049;-68
2023/12/19 00:32:21;;;;;;;13.43;8.40;;;;;;;4.92;90.85;102152.34;5024956;28;20037;-68
2023/12/19 00:34:47;;;;;;;14.25;9.35;;;;;;;4.91;90.63;102160.00;5023430;28;20037;-68
2023/12/19 00:37:13;;;;;;;12.82;8.68;;;;;;;4.93;90.57;102148.97;5022788;28;20425;-68
2023/12/19 00:39:39;;;;;;;12.57;8.77;;;;;;;4.94;90.70;102140.47;5025088;28;20044;-68
2023/12/19 00:42:04;;;;;;;15.55;8.45;;;;;;;4.94;91.46;102145.59;5006657;28;20476;-68
2023/12/19 00:44:30;;;;;;;13.65;8.75;;;;;;;4.94;91.39;102125.09;5039847;28;20522;-68
2023/12/19 00:46:55;;;;;;;14.13;8.80;;;;;;;4.97;91.70;102119.22;5003365;28;20036;-69
2023/12/19 00:49:21;;;;;;;14.02;9.52;;;;;;;4.96;92.08;102133.72;5055363;28;20030;-68
2023/12/19 00:51:46;;;;;;;15.90;9.18;;;;;;;4.94;92.08;102137.91;5022313;28;20075;-68
2023/12/19 00:54:12;;;;;;;16.13;9.95;;;;;;;4.90;92.44;102140.28;5028405;28;20395;-68
2023/12/19 00:56:42;;;;;;;16.67;10.23;;;;;;;4.90;91.84;102135.16;5052618;28;20038;-68
2023/12/19 00:59:10;;;;;;;16.95;10.80;;;;;;;4.88;92.68;102132.56;5008525;28;20060;-68
2023/12/19 01:01:36;;;;;;;16.95;10.93;;;;;;;4.83;92.77;102154.59;5007542;28;20030;-68
2023/12/19 01:04:01;;;;;;;17.20;11.38;;;;;;;4.81;93.40;102157.88;5055753;28;20040;-68
2023/12/19 01:06:28;;;;;;;18.40;10.88;;;;;;;4.80;94.05;102157.03;5024697;28;20542;-67
2023/12/19 01:08:54;;;;;;;18.77;11.68;;;;;;;4.76;93.73;102154.28;5021357;28;20042;-68
2023/12/19 01:11:20;;;;;;;19.45;11.75;;;;;;;4.78;93.90;102160.34;5025097;28;20123;-68
2023/12/19 01:13:45;;;;;;;18.80;11.57;;;;;;;4.78;94.13;102162.91;5057696;28;20060;-68
2023/12/19 01:16:13;;;;;;;18.35;10.82;;;;;;;4.76;94.86;102165.41;5007398;28;20560;-68
2023/12/19 01:18:38;;;;;;;20.10;11.38;;;;;;;4.78;94.70;102160.34;5022645;28;20057;-68
2023/12/19 01:21:05;;;;;;;17.60;10.63;;;;;;;4.75;95.70;102158.53;5025523;28;20038;-68
2023/12/19 01:23:30;;;;;;;17.17;10.15;;;;;;;4.77;95.61;102151.81;5020796;28;20049;-68
2023/12/19 01:25:55;;;;;;;17.23;11.02;;;;;;;4.78;95.59;102152.66;5003971;28;20034;-68
2023/12/19 01:28:24;;;;;;;13.70;9.57;;;;;;;4.80;95.66;102148.47;5023997;28;20041;-68
2023/12/19 01:30:52;;;;;;;16.50;9.77;;;;;;;4.79;95.83;102151.84;5021909;28;20042;-68
2023/12/19 01:33:17;;;;;;;16.70;10.13;;;;;;;4.78;96.24;102133.03;5052413;28;20033;-68
2023/12/19 01:35:43;;;;;;;15.80;10.30;;;;;;;4.79;96.29;102134.78;5022337;28;20127;-68
2023/12/19 01:38:09;;;;;;;15.48;9.27;;;;;;;4.80;96.45;102128.88;5055555;28;20037;-68
2023/12/19 01:40:35;;;;;;;16.65;10.05;;;;;;;4.80;96.63;102120.31;5022718;28;20037;-68
2023/12/19 01:43:01;;;;;;;17.17;10.23;;;;;;;4.82;97.33;102124.66;5019916;28;20128;-68
2023/12/19 01:45:28;;;;;;;16.08;9.20;;;;;;;4.84;97.32;102132.38;5027473;28;20045;-68
2023/12/19 01:47:55;;;;;;;15.82;9.80;;;;;;;4.87;97.25;102127.38;5023990;28;20150;-68
2023/12/19 01:50:20;;;;;;;16.17;9.65;;;;;;;4.90;97.18;102124.94;5000984;28;20037;-69
2023/12/19 01:52:52;;;;;;;13.98;8.35;;;;;;;4.94;97.96;102109.72;5041220;28;20583;-68
2023/12/19 01:55:19;;;;;;;13.43;8.50;;;;;;;4.98;98.50;102105.59;5023916;28;20049;-67
2023/12/19 01:57:45;;;;;;;12.55;7.75;;;;;;;5.02;98.80;102105.75;5023563;28;20068;-68
2023/12/19 02:00:14;;;;;;;13.38;6.90;;;;;;;5.07;98.61;102108.50;5023629;28;20041;-68
2023/12/19 02:02:44;;;;;;;12.23;8.32;;;;;;;5.11;99.02;102103.50;5020364;28;20045;-68
2023/12/19 02:05:09;;;;;;;12.02;8.20;;;;;;;5.15;98.91;102104.50;5052083;28;20025;-68
2023/12/19 02:07:39;;;;;;;12.18;6.78;;;;;;;5.18;98.73;102096.91;5023350;28;20036;-68
2023/12/19 02:10:05;;;;;;;10.93;7.25;;;;;;;5.18;98.73;102099.47;5041285;28;20041;-68
2023/12/19 02:12:31;;;;;;;10.73;6.45;;;;;;;5.19;98.21;102091.81;5026575;28;20042;-68
2023/12/19 02:14:57;;;;;;;10.70;6.90;;;;;;;5.20;98.34;102095.25;5028453;28;20567;-68
2023/12/19 02:17:26;;;;;;;11.55;7.10;;;;;;;5.21;97.74;102094.44;5060713;28;20037;-68
2023/12/19 02:19:54;;;;;;;9.30;5.95;;;;;;;5.20;98.02;102091.00;5026192;28;20644;-68
2023/12/19 02:22:20;;;;;;;10.52;6.88;;;;;;;5.20;97.99;102101.25;5025167;28;20037;-68
2023/12/19 02:24:47;;;;;;;11.95;6.80;;;;;;;5.22;98.24;102103.88;5025056;28;20412;-68
2023/12/19 02:27:14;;;;;;;10.10;6.63;;;;;;;5.21;97.91;102097.91;5029510;28;20030;-68
2023/12/19 02:29:39;;;;;;;8.88;6.00;;;;;;;5.21;98.07;102091.88;5023934;28;20052;-68
2023/12/19 02:32:05;;;;;;;9.40;6.72;;;;;;;5.22;98.03;102089.38;5058882;28;20476;-68
2023/12/19 02:34:31;;;;;;;9.55;6.07;;;;;;;5.23;98.41;102092.81;5059416;28;20396;-68
2023/12/19 02:36:56;;;;;;;9.77;6.00;;;;;;;5.25;98.71;102082.63;5028639;28;20110;-68
2023/12/19 02:39:25;;;;;;;10.20;6.50;;;;;;;5.24;98.66;102079.19;5010303;28;20356;-68
2023/12/19 02:41:50;;;;;;;9.88;6.72;;;;;;;5.24;98.08;102086.88;5057501;28;20511;-68
2023/12/19 02:44:16;;;;;;;8.93;5.78;;;;;;;5.26;98.20;102084.34;5025691;28;20056;-68
2023/12/19 02:46:41;;;;;;;11.98;6.03;;;;;;;5.27;98.25;102080.97;5061788;28;20025;-67
2023/12/19 02:49:07;;;;;;;8.35;5.88;;;;;;;5.28;98.52;102075.03;5022954;28;20056;-68
2023/12/19 02:51:32;;;;;;;9.32;5.60;;;;;;;5.28;98.48;102069.91;5027770;28;20041;-68
2023/12/19 02:53:58;;;;;;;9.48;6.18;;;;;;;5.27;98.03;102061.34;5028557;28;20083;-68
2023/12/19 02:56:25;;;;;;;9.95;6.10;;;;;;;5.29;98.15;102069.06;5039967;28;20404;-68
2023/12/19 02:58:53;;;;;;;8.57;5.60;;;;;;;5.30;98.16;102064.00;5027000;28;20022;-68
2023/12/19 03:01:18;;;;;;;8.32;5.75;;;;;;;5.33;98.27;102052.97;5023582;28;20401;-68
2023/12/19 03:03:44;;;;;;;8.65;5.85;;;;;;;5.33;98.22;102045.28;5040428;28;20048;-68
2023/12/19 03:06:12;;;;;;;8.50;5.13;;;;;;;5.34;98.63;102034.22;5057827;28;20037;-68
2023/12/19 03:08:37;;;;;;;7.97;5.35;;;;;;;5.35;98.87;102030.81;5027850;28;20049;-68
2023/12/19 03:11:03;;;;;;;6.20;4.80;;;;;;;5.37;98.96;102026.63;5024730;28;20038;-68
2023/12/19 03:13:28;;;;;;;6.72;4.60;;;;;;;5.38;98.58;102018.09;5029534;28;20038;-67
2023/12/19 03:15:54;;;;;;;9.15;4.82;;;;;;;5.41;98.65;102011.38;5028731;28;20460;-68
2023/12/19 03:18:24;;;;;;;7.07;4.47;;;;;;;5.39;97.99;102002.78;5026856;28;20120;-68
2023/12/19 03:20:54;;;;;;;6.65;4.30;;;;;;;5.38;98.11;102001.03;5023645;28;20096;-68
2023/12/19 03:23:23;;;;;;;6.80;4.45;;;;;;;5.37;98.53;101995.88;5025077;28;20049;-68
2023/12/19 03:25:49;;;;;;;6.90;4.20;;;;;;;5.34;97.78;101988.06;5024720;28;20029;-68
2023/12/19 03:28:15;;;;;;;6.57;3.97;;;;;;;5.36;98.23;101979.59;5057020;28;20102;-68
2023/12/19 03:30:40;;;;;;;5.45;3.83;;;;;;;5.37;98.33;101980.50;5026108;28;20061;-68
2023/12/19 03:33:06;;;;;;;6.63;4.35;;;;;;;5.35;98.04;101969.28;5056315;28;20400;-68
2023/12/19 03:35:32;;;;;;;7.88;3.95;;;;;;;5.33;97.71;101971.81;5021823;28;20045;-68
2023/12/19 03:37:58;;;;;;;6.85;4.18;;;;;;;5.31;97.60;101967.47;5024173;28;20018;-68
2023/12/19 03:40:23;;;;;;;5.15;3.70;;;;;;;5.28;98.15;101969.94;5025497;28;20040;-68
2023/12/19 03:42:49;;;;;;;7.50;4.57;;;;;;;5.26;98.02;101967.31;5023739;28;20443;-68
2023/12/19 03:45:17;;;;;;;6.53;4.28;;;;;;;5.27;98.28;101956.25;5024431;28;20037;-68
2023/12/19 03:47:43;;;;;;;6.22;4.10;;;;;;;5.27;97.90;101961.38;5024516;28;20053;-68
2023/12/19 03:50:09;;;;;;;5.80;3.60;;;;;;;5.31;98.21;101962.34;5026781;28;20046;-68
2023/12/19 03:52:35;;;;;;;5.05;3.45;;;;;;;5.32;98.20;101967.50;5026647;28;20399;-68
2023/12/19 03:55:00;;;;;;;5.75;3.97;;;;;;;5.34;98.58;101967.56;5041292;28;20045;-68
2023/12/19 03:57:26;;;;;;;6.78;4.40;;;;;;;5.35;98.86;101977.84;5026788;28;20030;-68
2023/12/19 03:59:52;;;;;;;6.70;4.00;;;;;;;5.37;99.18;101980.50;5022186;28;20080;-68
2023/12/19 04:02:18;;;;;;;5.82;4.00;;;;;;;5.36;98.92;101966.78;5018811;28;20071;-68
2023/12/19 04:04:43;;;;;;;6.60;4.10;;;;;;;5.39;98.60;101968.56;5024875;28;20033;-68
2023/12/19 04:07:09;;;;;;;6.75;4.22;;;;;;;5.42;98.31;101960.97;5058488;28;20029;-68
2023/12/19 04:09:34;;;;;;;6.45;4.13;;;;;;;5.42;98.98;101954.16;5055400;28;20132;-68
2023/12/19 04:12:03;;;;;;;5.07;3.58;;;;;;;5.44;98.90;101955.06;5025173;28;20392;-68
2023/12/19 04:14:30;;;;;;;6.03;3.92;;;;;;;5.43;99.27;101948.19;5024338;28;20124;-68
2023/12/19 04:16:55;;;;;;;6.75;4.25;;;;;;;5.44;98.40;101938.81;5068876;28;20063;-69
2023/12/19 04:19:21;;;;;;;8.10;4.47;;;;;;;5.47;98.61;101941.47;5033225;28;20422;-68
2023/12/19 04:21:47;;;;;;;7.53;3.72;;;;;;;5.48;98.96;101946.66;5034073;28;20079;-68
2023/12/19 04:24:13;;;;;;;6.30;4.15;;;;;;;5.47;98.98;101934.66;5013093;28;20123;-68
2023/12/19 04:26:39;;;;;;;8.35;4.10;;;;;;;5.46;98.89;101927.78;5025997;28;20081;-68
2023/12/19 04:29:04;;;;;;;6.80;4.22;;;;;;;5.45;98.46;101920.94;5023806;28;20032;-68
2023/12/19 04:31:30;;;;;;;6.95;4.47;;;;;;;5.47;99.17;101933.78;5037480;28;20095;-68
2023/12/19 04:33:58;;;;;;;11.15;4.53;;;;;;;5.46;98.46;101927.78;5021496;28;20540;-68
2023/12/19 04:36:23;;;;;;;6.20;4.32;;;;;;;5.46;98.60;101930.34;5026262;28;20119;-68
2023/12/19 04:38:49;;;;;;;6.15;4.03;;;;;;;5.45;98.36;101932.88;5022617;28;20296;-68
2023/12/19 04:41:14;;;;;;;8.05;4.50;;;;;;;5.46;98.31;101940.59;5055448;28;20561;-68
2023/12/19 04:43:40;;;;;;;7.00;4.88;;;;;;;5.43;98.06;101937.94;5056920;28;20558;-68
2023/12/19 04:46:08;;;;;;;7.68;4.03;;;;;;;5.43;97.99;101932.81;5005665;28;20041;-68
2023/12/19 04:48:34;;;;;;;6.57;4.00;;;;;;;5.43;98.25;101922.56;5055269;28;20041;-67
2023/12/19 04:51:00;;;;;;;7.95;4.07;;;;;;;5.44;98.46;101926.00;5003448;28;20042;-68
2023/12/19 04:53:25;;;;;;;5.68;4.25;;;;;;;5.42;98.37;101923.41;5018036;28;20095;-68
2023/12/19 04:55:51;;;;;;;9.48;4.95;;;;;;;5.42;98.37;101908.03;5037287;28;20045;-68
2023/12/19 04:58:17;;;;;;;5.95;4.15;;;;;;;5.40;98.51;101899.38;5034752;28;20045;-68
2023/12/19 05:00:43;;;;;;;7.80;4.40;;;;;;;5.41;98.40;101906.25;5049353;28;20501;-68
2023/12/19 05:03:09;;;;;;;9.40;4.38;;;;;;;5.41;98.45;101903.69;5017697;28;20099;-68
2023/12/19 05:05:34;;;;;;;7.93;4.80;;;;;;;5.42;98.64;101907.16;5023451;28;20041;-68
2023/12/19 05:08:00;;;;;;;7.03;4.18;;;;;;;5.43;99.17;101907.16;5023513;28;20150;-68
2023/12/19 05:10:25;;;;;;;8.98;4.32;;;;;;;5.41;98.30;101896.00;5054452;28;20037;-68
2023/12/19 05:12:51;;;;;;;6.00;3.63;;;;;;;5.42;99.25;101904.56;5019620;28;20033;-68
2023/12/19 05:15:16;;;;;;;7.72;4.30;;;;;;;5.43;98.88;101898.63;4989363;28;20155;-68
2023/12/19 05:17:41;;;;;;;4.70;3.47;;;;;;;5.40;99.17;101901.09;5020890;28;20133;-68
2023/12/19 05:20:07;;;;;;;8.35;4.20;;;;;;;5.38;98.91;101900.16;5022994;28;20033;-68
2023/12/19 05:22:36;;;;;;;6.68;4.47;;;;;;;5.37;98.92;101894.16;5022592;28;20034;-67
2023/12/19 05:25:01;;;;;;;6.72;4.35;;;;;;;5.37;98.90;101894.16;5021012;28;20148;-68
2023/12/19 05:27:26;;;;;;;8.07;4.47;;;;;;;5.35;99.81;101890.69;5022390;28;20037;-68
2023/12/19 05:29:52;;;;;;;5.90;4.13;;;;;;;5.38;99.78;101892.47;5026432;28;20371;-68
2023/12/19 05:32:17;;;;;;;6.97;3.83;;;;;;;5.40;100.00;101913.94;5050714;28;20046;-68
2023/12/19 05:34:43;;;;;;;6.82;4.00;;;;;;;5.40;100.00;101913.94;5055002;28;20037;-68
2023/12/19 05:37:08;;;;;;;5.35;3.72;;;;;;;5.42;100.00;101905.44;5022847;28;20042;-68
2023/12/19 05:39:37;;;;;;;6.53;3.95;;;;;;;5.44;99.87;101893.53;5005154;28;20092;-68
2023/12/19 05:42:03;;;;;;;6.75;4.00;;;;;;;5.44;99.42;101892.66;5053827;28;20037;-68
2023/12/19 05:44:28;;;;;;;6.97;4.20;;;;;;;5.45;99.98;101882.47;5023070;28;20180;-69
2023/12/19 05:46:54;;;;;;;6.85;4.53;;;;;;;5.42;99.42;101876.38;5056070;28;20554;-68
2023/12/19 05:49:20;;;;;;;8.20;4.90;;;;;;;5.43;99.32;101873.84;5024087;28;20611;-69
2023/12/19 05:51:45;;;;;;;8.02;4.88;;;;;;;5.40;99.25;101873.75;5025273;28;20045;-68
2023/12/19 05:54:11;;;;;;;6.88;4.53;;;;;;;5.38;99.61;101864.28;5059624;28;20511;-68
2023/12/19 05:56:39;;;;;;;6.40;4.20;;;;;;;5.35;100.00;101857.38;5026404;28;20507;-68
2023/12/19 05:59:05;;;;;;;7.43;4.18;;;;;;;5.32;100.00;101853.84;5027793;28;20025;-68
2023/12/19 06:01:30;;;;;;;7.00;4.28;;;;;;;5.31;100.00;101858.09;5045692;28;20037;-68
2023/12/19 06:03:56;;;;;;;6.65;4.55;;;;;;;5.32;100.00;101843.59;5065161;28;20041;-66
2023/12/19 06:06:21;;;;;;;5.80;3.92;;;;;;;5.33;100.00;101847.91;5029331;28;20076;-67
2023/12/19 06:08:47;;;;;;;8.32;4.43;;;;;;;5.31;100.00;101839.31;5026823;28;20049;-68
2023/12/19 06:11:12;;;;;;;6.50;4.53;;;;;;;5.26;100.00;101838.28;5031252;28;20030;-67
2023/12/19 06:13:38;;;;;;;7.63;4.50;;;;;;;5.26;100.00;101838.28;5030305;28;20460;-67
2023/12/19 06:16:11;;;;;;;6.03;4.18;;;;;;;5.25;100.00;101829.72;5026086;28;20034;-68
2023/12/19 06:18:38;;;;;;;6.43;3.90;;;;;;;5.25;100.00;101824.56;5057503;28;20059;-68
2023/12/19 06:21:04;;;;;;;9.32;4.38;;;;;;;5.28;100.00;101834.94;5058530;28;20048;-67
2023/12/19 06:23:29;;;;;;;6.75;4.88;;;;;;;5.31;100.00;101824.75;5059215;28;20713;-68
2023/12/19 06:25:58;;;;;;;7.05;4.07;;;;;;;5.35;100.00;101828.28;5025688;28;20106;-68
2023/12/19 06:28:24;;;;;;;6.25;4.10;;;;;;;5.34;100.00;101827.41;5045536;28;20053;-68
2023/12/19 06:30:50;;;;;;;5.65;4.15;;;;;;;5.39;100.00;101827.56;5059758;28;20048;-68
2023/12/19 06:33:15;;;;;;;8.45;4.30;;;;;;;5.41;100.00;101813.97;5027057;28;20129;-68
2023/12/19 06:35:43;;;;;;;7.32;4.15;;;;;;;5.45;100.00;101809.81;5025356;28;20060;-68
2023/12/19 06:38:09;;;;;;;7.03;3.80;;;;;;;5.49;100.00;101822.75;5007972;28;20056;-67
2023/12/19 06:40:36;;;;;;;5.32;3.70;;;;;;;5.50;100.00;101821.94;5060162;28;20060;-67
2023/12/19 06:43:05;;;;;;;5.10;3.67;;;;;;;5.53;100.00;101816.00;5028170;28;20124;-67
2023/12/19 06:45:32;;;;;;;6.57;3.50;;;;;;;5.56;100.00;101821.22;5025444;28;20099;-68
2023/12/19 06:48:01;;;;;;;5.63;3.88;;;;;;;5.57;100.00;101817.84;5025842;28;20040;-67
2023/12/19 06:50:26;;;;;;;5.65;3.42;;;;;;;5.59;100.00;101822.19;5027710;28;20041;-67
2023/12/19 06:52:51;;;;;;;5.68;3.88;;;;;;;5.63;100.00;101818.91;5055705;28;20101;-67
2023/12/19 06:55:17;;;;;;;8.85;4.15;;;;;;;5.64;100.00;101817.19;5023642;28;20045;-68
2023/12/19 06:57:42;;;;;;;4.90;3.83;;;;;;;5.65;100.00;101816.38;5025424;28;20045;-68
2023/12/19 07:00:08;;;;;;;7.00;3.55;;;;;;;5.65;100.00;101814.66;5059513;28;20468;-68
2023/12/19 07:02:36;;;;;;;8.18;4.30;;;;;;;5.64;100.00;101818.06;5025275;28;20669;-68
2023/12/19 07:05:02;;;;;;;7.78;4.28;;;;;;;5.63;100.00;101818.91;5041281;28;20038;-68
2023/12/19 07:07:28;;;;;;;5.32;3.53;;;;;;;5.62;100.00;101816.28;5027985;28;20484;-67
2023/12/19 07:09:53;;;;;;;5.40;3.50;;;;;;;5.63;100.00;101813.78;5022734;28;20034;-68
2023/12/19 07:12:19;;;;;;;11.13;4.65;;;;;;;5.65;100.00;101811.22;5023347;28;20037;-68
2023/12/19 07:14:44;;;;;;;4.82;3.30;;;;;;;5.69;100.00;101813.06;5041996;28;20037;-68
2023/12/19 07:17:10;;;;;;;5.47;3.13;;;;;;;5.68;100.00;101801.94;5028854;28;20120;-68
2023/12/19 07:19:36;;;;;;;4.78;3.22;;;;;;;5.69;100.00;101795.97;5029320;28;20029;-68
2023/12/19 07:22:01;;;;;;;4.63;3.25;;;;;;;5.67;100.00;101805.31;5024971;28;20524;-67
2023/12/19 07:24:27;;;;;;;6.03;3.60;;;;;;;5.69;99.96;101805.38;5025055;28;20064;-67
2023/12/19 07:26:56;;;;;;;7.40;3.50;;;;;;;5.70;99.89;101807.97;5039382;28;20029;-67
2023/12/19 07:29:21;;;;;;;7.75;3.78;;;;;;;5.71;100.00;101801.16;5060482;28;20025;-67
2023/12/19 07:31:46;;;;;;;63.47;9.15;;;;;;;5.68;100.00;101801.94;5060846;28;20400;-67
2023/12/19 07:34:12;;;;;;;6.90;3.55;;;;;;;5.72;100.00;101797.75;5026834;28;20404;-67
2023/12/19 07:36:37;;;;;;;7.88;3.50;;;;;;;5.71;100.00;101791.75;5011296;28;20563;-68
2023/12/19 07:39:06;;;;;;;6.68;3.47;;;;;;;5.72;100.00;101790.06;5023795;28;20050;-67
2023/12/19 07:41:32;;;;;;;5.65;3.45;;;;;;;5.74;100.00;101779.03;5057206;28;20065;-67
2023/12/19 07:43:58;;;;;;;6.22;3.63;;;;;;;5.77;100.00;101781.66;5026766;28;20029;-67
2023/12/19 07:46:24;;;;;;;6.63;3.05;;;;;;;5.79;100.00;101779.13;5025590;28;20636;-67
2023/12/19 07:48:50;;;;;;;6.38;3.10;;;;;;;5.81;100.00;101784.31;5024193;28;20042;-67
2023/12/19 07:51:23;;;;;;;4.40;3.25;;;;;;;5.83;100.00;101780.09;5007199;28;20036;-67
2023/12/19 07:53:49;;;;;;;5.88;3.85;;;;;;;5.83;100.00;101775.81;5020412;28;20072;-67
2023/12/19 07:56:14;;;;;;;7.18;3.80;;;;;;;5.83;100.00;101773.25;5024555;28;20031;-67
2023/12/19 07:58:40;;;;;;;9.13;3.88;;;;;;;5.87;100.00;101766.53;5024398;28;20301;-67
2023/12/19 08:01:09;;;;;;;4.40;3.05;;;;;;;5.88;100.00;101752.84;5023726;28;20540;-67
2023/12/19 08:03:35;;;;;;;7.75;2.97;;;;;;;5.91;100.00;101761.50;5053037;28;20046;-67
2023/12/19 08:06:00;;;;;;;7.68;3.25;;;;;;;5.95;100.00;101747.06;5023140;28;20501;-67
2023/12/19 08:08:26;;;;;;;6.65;2.97;;;;;;;5.94;100.00;101761.56;5026020;28;20437;-67
2023/12/19 08:10:52;;;;;;;3.80;2.80;;;;;;;5.97;100.00;101753.09;5042165;28;20033;-67
2023/12/19 08:13:20;;;;;;;5.88;3.20;;;;;;;5.98;100.00;101752.28;5022687;28;20496;-68
2023/12/19 08:15:47;;;;;;;5.03;2.67;;;;;;;5.99;100.00;101747.16;5024706;28;20060;-69
2023/12/19 08:18:13;;;;;;;7.22;3.20;;;;;;;6.00;99.90;101741.22;5057193;28;20068;-68
2023/12/19 08:20:38;;;;;;;3.97;2.72;;;;;;;6.00;100.00;101745.47;5024740;28;20065;-68
2023/12/19 08:23:04;;;;;;;7.15;3.60;;;;;;;6.04;99.60;101745.59;5024586;28;20508;-68
2023/12/19 08:25:30;;;;;;;7.85;3.42;;;;;;;6.09;99.02;101732.88;5007444;28;20037;-69
2023/12/19 08:27:55;;;;;;;5.53;2.85;;;;;;;6.11;99.49;101741.50;5019764;28;20037;-69
2023/12/19 08:30:27;;;;;;;5.22;2.60;;;;;;;6.14;98.81;101750.13;5020809;28;20741;-68
2023/12/19 08:32:56;;;;;;;6.75;3.17;;;;;;;6.16;99.13;101761.31;5022231;28;20134;-69
2023/12/19 08:35:22;;;;;;;4.20;3.28;;;;;;;6.19;98.58;101766.53;5023921;28;20040;-68
2023/12/19 08:37:48;;;;;;;5.15;2.75;;;;;;;6.23;98.59;101767.44;5025829;28;20756;-68
2023/12/19 08:40:13;;;;;;;5.70;2.83;;;;;;;6.27;98.33;101764.13;5055870;28;20049;-68
2023/12/19 08:42:40;;;;;;;3.55;2.33;;;;;;;6.30;98.10;101751.38;5026515;28;20120;-68
2023/12/19 08:45:13;;;;;;;7.45;2.78;;;;;;;6.35;98.23;101754.91;5021955;28;20526;-68
2023/12/19 08:47:38;;;;;;;3.80;2.67;;;;;;;6.42;97.66;101754.25;5025699;28;20041;-67
2023/12/19 08:50:07;;;;;;;2.85;2.10;;;;;;;6.53;97.64;101757.06;4993625;28;20048;-68
2023/12/19 08:52:33;;;;;;;4.20;2.60;;;;;;;6.60;96.61;101736.69;5027157;28;20587;-67
2023/12/19 08:54:59;;;;;;;6.97;3.40;;;;;;;6.63;96.89;101735.91;5025238;28;20033;-69
2023/12/19 08:57:25;;;;;;;7.63;2.92;;;;;;;6.72;96.13;101729.28;5024918;28;20098;-68
2023/12/19 08:59:50;;;;;;;8.07;2.92;;;;;;;6.78;96.43;101716.56;5035954;28;20096;-68
2023/12/19 09:02:15;;;;;;;6.82;3.58;;;;;;;6.86;95.67;101709.00;5026162;28;20037;-68
2023/12/19 09:04:41;;;;;;;5.40;3.42;;;;;;;6.89;95.73;101709.94;5059056;28;20036;-68
2023/12/19 09:07:10;;;;;;;8.27;3.20;;;;;;;6.92;95.20;101709.16;5025761;28;20053;-68
2023/12/19 09:09:36;;;;;;;8.48;3.05;;;;;;;6.94;95.71;101707.50;5023287;28;20037;-68
2023/12/19 09:12:02;;;;;;;5.97;2.72;;;;;;;6.95;95.28;101708.34;5025298;28;20112;-68
2023/12/19 09:14:28;;;;;;;5.38;2.80;;;;;;;6.95;95.25;101709.22;5028378;28;20095;-68
2023/12/19 09:16:54;;;;;;;4.60;2.88;;;;;;;6.99;94.96;101692.16;5023155;28;20042;-68
2023/12/19 09:19:19;;;;;;;3.25;2.22;;;;;;;6.98;94.65;101688.72;5027538;28;20121;-67
2023/12/19 09:21:45;;;;;;;6.80;3.15;;;;;;;7.03;94.46;101693.97;5061954;28;20049;-68
2023/12/19 09:24:10;;;;;;;5.72;2.78;;;;;;;7.05;94.27;101695.72;5029867;28;20076;-68
2023/12/19 09:26:39;;;;;;;4.05;2.50;;;;;;;7.06;93.72;101694.03;5026364;28;20041;-67
2023/12/19 09:29:06;;;;;;;4.13;2.53;;;;;;;7.04;93.96;101693.97;5059252;28;20037;-68
2023/12/19 09:31:32;;;;;;;4.88;2.80;;;;;;;7.07;94.39;101700.88;5029221;28;20026;-69
2023/12/19 09:33:58;;;;;;;5.75;2.90;;;;;;;7.09;94.11;101700.06;5041033;28;20040;-69
2023/12/19 09:36:27;;;;;;;3.05;2.08;;;;;;;7.13;94.46;101693.31;5027814;28;20085;-68
2023/12/19 09:38:52;;;;;;;6.97;2.08;;;;;;;7.20;96.01;101698.66;5022451;28;20112;-68
2023/12/19 09:41:18;;;;;;;3.58;2.00;;;;;;;7.30;96.05;101690.25;5027968;28;20124;-68
2023/12/19 09:43:44;;;;;;;5.18;1.80;;;;;;;7.37;95.82;101689.56;5028426;28;20048;-68
2023/12/19 09:46:10;;;;;;;3.83;1.67;;;;;;;7.44;95.78;101688.84;5027298;28;20069;-68
2023/12/19 09:48:37;;;;;;;3.03;1.70;;;;;;;7.45;95.35;101671.69;5026650;28;20033;-68
2023/12/19 09:51:04;;;;;;;4.97;1.90;;;;;;;7.42;95.24;101659.63;5057236;28;20046;-68
2023/12/19 09:53:34;;;;;;;6.22;2.70;;;;;;;7.35;94.11;101664.66;5057164;28;20041;-68
2023/12/19 09:56:01;;;;;;;7.88;2.78;;;;;;;7.32;94.04;101668.03;5025701;28;20785;-68
2023/12/19 09:58:30;;;;;;;5.72;2.53;;;;;;;7.33;94.45;101654.31;5029728;28;20144;-68
2023/12/19 10:00:59;;;;;;;5.28;2.95;;;;;;;7.35;93.98;101634.66;5024027;28;20041;-68
2023/12/19 10:03:27;;;;;;;5.05;2.40;;;;;;;7.39;93.50;101639.00;5057199;28;20392;-68
2023/12/19 10:05:56;;;;;;;5.75;2.58;;;;;;;7.46;93.14;101621.97;5059067;28;20460;-69
2023/12/19 10:08:21;;;;;;;4.07;2.50;;;;;;;7.56;93.84;101641.03;5025706;28;20037;-68
2023/12/19 10:10:50;;;;;;;2.95;1.85;;;;;;;7.60;93.91;101643.66;5027669;28;20036;-68
2023/12/19 10:13:32;;;;;;;3.88;1.55;;;;;;;7.64;94.00;101639.44;5026305;28;20037;-68
2023/12/19 10:16:09;;;;;;;5.38;1.50;;;;;;;7.66;94.44;101625.75;5025954;28;20037;-68
2023/12/19 10:18:39;;;;;;;6.53;1.55;;;;;;;7.68;93.64;101618.97;5059444;28;20081;-68
2023/12/19 10:21:14;;;;;;;3.15;1.40;;;;;;;7.70;93.73;101604.41;5026829;28;20041;-68
2023/12/19 10:23:43;;;;;;;3.63;1.40;;;;;;;7.71;93.24;101593.28;5025385;28;20034;-67
2023/12/19 10:26:10;;;;;;;3.58;1.60;;;;;;;7.71;93.95;101589.84;5046572;28;20100;-68
2023/12/19 10:28:37;;;;;;;5.07;1.58;;;;;;;7.74;93.90;101582.16;5061220;28;20586;-68
2023/12/19 10:31:15;;;;;;;3.08;1.38;;;;;;;7.76;94.00;101581.34;5024454;28;20037;-69
2023/12/19 10:33:46;;;;;;;2.33;1.50;;;;;;;7.75;93.42;101564.16;5025730;28;20041;-68
2023/12/19 10:36:22;;;;;;;3.55;1.83;;;;;;;7.76;93.05;101558.19;5026149;28;20061;-68
2023/12/19 10:38:48;;;;;;;5.60;1.50;;;;;;;7.79;92.97;101557.34;5032857;28;20021;-69
2023/12/19 10:41:30;;;;;;;3.10;1.40;;;;;;;7.82;93.25;101563.44;5023573;28;20091;-68
2023/12/19 10:44:00;;;;;;;6.15;1.80;;;;;;;7.83;92.43;101559.16;5026197;28;20036;-69
2023/12/19 10:46:30;;;;;;;6.25;1.70;;;;;;;7.84;92.87;101532.53;5026739;28;20520;-69
2023/12/19 10:49:03;;;;;;;4.30;1.60;;;;;;;7.82;92.45;101536.81;5053287;28;20195;-68
2023/12/19 10:51:41;;;;;;;4.22;1.40;;;;;;;7.84;92.62;101537.69;5032092;28;20037;-69
2023/12/19 10:54:10;;;;;;;5.45;1.83;;;;;;;7.85;93.14;101549.72;5029452;28;20064;-69
2023/12/19 10:56:58;;;;;;;5.35;2.63;;;;;;;7.80;92.41;101547.06;5040939;28;20069;-68
2023/12/19 10:59:56;;;;;;;2.67;1.33;;;;;;;7.79;93.67;101550.50;5019443;28;20515;-68
2023/12/19 11:02:37;;;;;;;5.28;1.20;;;;;;;7.80;93.11;101523.91;5026379;28;20044;-68
2023/12/19 11:05:36;;;;;;;3.60;1.23;;;;;;;7.83;93.27;101518.81;5031176;28;20131;-68
2023/12/19 11:08:17;;;;;;;8.57;1.90;;;;;;;7.83;92.78;101503.38;5025126;28;20384;-68
2023/12/19 11:10:57;;;;;;;3.15;1.35;;;;;;;7.86;93.39;101500.84;5027186;28;20033;-67
2023/12/19 11:13:25;;;;;;;3.60;1.80;;;;;;;7.89;92.88;101502.63;5026847;28;20206;-68
2023/12/19 11:16:05;;;;;;;3.55;1.05;;;;;;;7.86;92.90;101481.97;5022682;28;20120;-67
2023/12/19 11:18:45;;;;;;;3.88;1.33;;;;;;;7.85;92.02;101467.38;5039570;28;20042;-68
2023/12/19 11:21:49;;;;;;;4.93;1.85;;;;;;;7.89;92.28;101469.16;5008979;28;20133;-67
2023/12/19 11:24:25;;;;;;;4.88;1.45;;;;;;;7.92;92.11;101459.75;5021900;28;20045;-67
2023/12/19 11:27:25;;;;;;;2.80;1.08;;;;;;;7.97;92.13;101476.13;5025170;28;20072;-68
2023/12/19 11:29:53;;;;;;;4.65;1.30;;;;;;;7.98;92.26;101469.28;5023407;28;20408;-67